sensor_id;sensor_type;location;lat;lon;timestamp;pressure;altitude;pressure_sealevel;temperature;humidity
10732;BME280;5417;42.686;23.244;2023-04-10T00:02:54;94384.66;;;8.75;68.18
10732;BME280;5417;42.686;23.244;2023-04-10T00:20:05;94380.78;;;8.81;65.39
10732;BME280;5417;42.686;23.244;2023-04-10T00:22:36;94375.44;;;8.71;65.17
10732;BME280;5417;42.686;23.244;2023-04-10T00:25:03;94381.09;;;8.65;64.59
10732;BME280;5417;42.686;23.244;2023-04-10T00:30:55;94372.69;;;8.50;63.59
10732;BME280;5417;42.686;23.244;2023-04-10T00:33:23;94372.06;;;8.47;61.17
10732;BME280;5417;42.686;23.244;2023-04-10T00:42:53;94376.28;;;8.37;60.90
10732;BME280;5417;42.686;23.244;2023-04-10T00:45:23;94372.88;;;8.36;61.12
10732;BME280;5417;42.686;23.244;2023-04-10T00:47:50;94370.66;;;8.43;60.17
10732;BME280;5417;42.686;23.244;2023-04-10T00:50:42;94369.81;;;8.42;59.35
10732;BME280;5417;42.686;23.244;2023-04-10T00:53:34;94371.31;;;8.34;57.75
10732;BME280;5417;42.686;23.244;2023-04-10T00:56:02;94380.31;;;8.41;57.63
10732;BME280;5417;42.686;23.244;2023-04-10T00:58:30;94366.41;;;8.42;56.51
10732;BME280;5417;42.686;23.244;2023-04-10T01:00:57;94363.94;;;8.40;56.87
10732;BME280;5417;42.686;23.244;2023-04-10T01:04:15;94360.38;;;8.41;56.24
10732;BME280;5417;42.686;23.244;2023-04-10T01:06:46;94363.69;;;8.43;56.77
10732;BME280;5417;42.686;23.244;2023-04-10T01:10:14;94365.50;;;8.54;59.00
10732;BME280;5417;42.686;23.244;2023-04-10T01:13:03;94357.84;;;8.64;60.32
10732;BME280;5417;42.686;23.244;2023-04-10T01:15:55;94360.56;;;8.62;61.44
10732;BME280;5417;42.686;23.244;2023-04-10T01:18:27;94353.59;;;8.63;62.58
10732;BME280;5417;42.686;23.244;2023-04-10T01:21:22;94355.50;;;8.61;63.10
10732;BME280;5417;42.686;23.244;2023-04-10T01:24:52;94356.34;;;8.72;63.84
10732;BME280;5417;42.686;23.244;2023-04-10T01:33:47;94358.44;;;8.67;66.70
10732;BME280;5417;42.686;23.244;2023-04-10T01:36:19;94351.97;;;8.73;68.30
10732;BME280;5417;42.686;23.244;2023-04-10T01:42:13;94349.03;;;8.77;68.43
10732;BME280;5417;42.686;23.244;2023-04-10T01:44:41;94347.38;;;8.76;68.54
10732;BME280;5417;42.686;23.244;2023-04-10T01:47:36;94346.53;;;8.65;69.14
10732;BME280;5417;42.686;23.244;2023-04-10T01:50:08;94334.03;;;8.59;68.05
10732;BME280;5417;42.686;23.244;2023-04-10T01:52:35;94343.47;;;8.60;68.64
10732;BME280;5417;42.686;23.244;2023-04-10T01:55:03;94349.94;;;8.54;68.16
10732;BME280;5417;42.686;23.244;2023-04-10T01:57:33;94349.06;;;8.42;67.37
10732;BME280;5417;42.686;23.244;2023-04-10T02:00:00;94352.50;;;8.43;67.00
10732;BME280;5417;42.686;23.244;2023-04-10T02:02:29;94348.13;;;8.43;68.06
10732;BME280;5417;42.686;23.244;2023-04-10T02:05:19;94348.63;;;8.48;68.04
10732;BME280;5417;42.686;23.244;2023-04-10T02:15:09;94331.06;;;8.52;67.90
10732;BME280;5417;42.686;23.244;2023-04-10T02:18:01;94342.16;;;8.54;67.59
10732;BME280;5417;42.686;23.244;2023-04-10T02:23:57;94334.63;;;8.62;67.24
10732;BME280;5417;42.686;23.244;2023-04-10T02:47:54;94306.84;;;8.98;67.10
10732;BME280;5417;42.686;23.244;2023-04-10T02:50:21;94307.56;;;9.00;66.63
10732;BME280;5417;42.686;23.244;2023-04-10T02:52:50;94301.41;;;9.01;67.91
10732;BME280;5417;42.686;23.244;2023-04-10T02:55:40;94301.31;;;9.02;67.87
10732;BME280;5417;42.686;23.244;2023-04-10T02:58:12;94302.38;;;9.00;67.64
10732;BME280;5417;42.686;23.244;2023-04-10T03:01:24;94295.41;;;9.00;67.93
10732;BME280;5417;42.686;23.244;2023-04-10T03:03:52;94297.41;;;8.97;67.80
10732;BME280;5417;42.686;23.244;2023-04-10T03:06:47;94297.41;;;8.97;68.39
10732;BME280;5417;42.686;23.244;2023-04-10T03:10:08;94298.34;;;8.96;68.36
10732;BME280;5417;42.686;23.244;2023-04-10T03:13:22;94298.22;;;8.97;68.94
10732;BME280;5417;42.686;23.244;2023-04-10T03:16:36;94305.44;;;8.94;69.30
10732;BME280;5417;42.686;23.244;2023-04-10T03:18:58;94298.72;;;8.91;69.81
10732;BME280;5417;42.686;23.244;2023-04-10T03:21:28;94305.91;;;8.99;68.96
10732;BME280;5417;42.686;23.244;2023-04-10T03:29:47;94307.09;;;8.95;68.81
10732;BME280;5417;42.686;23.244;2023-04-10T03:32:59;94309.91;;;9.03;69.76
10732;BME280;5417;42.686;23.244;2023-04-10T03:38:40;94311.41;;;8.83;70.60
10732;BME280;5417;42.686;23.244;2023-04-10T03:41:06;94318.25;;;8.84;71.22
10732;BME280;5417;42.686;23.244;2023-04-10T03:43:33;94312.81;;;8.76;71.01
10732;BME280;5417;42.686;23.244;2023-04-10T03:46:00;94314.84;;;8.83;70.95
10732;BME280;5417;42.686;23.244;2023-04-10T03:51:55;94320.00;;;8.72;70.55
10732;BME280;5417;42.686;23.244;2023-04-10T04:05:07;94329.06;;;8.56;71.41
10732;BME280;5417;42.686;23.244;2023-04-10T04:13:29;94335.78;;;8.47;71.98
10732;BME280;5417;42.686;23.244;2023-04-10T04:16:49;94337.91;;;8.53;72.01
10732;BME280;5417;42.686;23.244;2023-04-10T04:19:12;94329.41;;;8.51;73.06
10732;BME280;5417;42.686;23.244;2023-04-10T04:21:40;94330.25;;;8.63;72.93
10732;BME280;5417;42.686;23.244;2023-04-10T04:25:33;94330.97;;;8.76;71.66
10732;BME280;5417;42.686;23.244;2023-04-10T04:27:48;94341.53;;;8.85;71.95
10732;BME280;5417;42.686;23.244;2023-04-10T04:31:57;94340.81;;;8.95;70.96
10732;BME280;5417;42.686;23.244;2023-04-10T04:33:38;94339.06;;;9.17;70.48
10732;BME280;5417;42.686;23.244;2023-04-10T04:39:28;94341.84;;;9.93;67.79
10732;BME280;5417;42.686;23.244;2023-04-10T04:42:19;94347.53;;;10.19;66.52
10732;BME280;5417;42.686;23.244;2023-04-10T04:46:12;94345.38;;;10.35;66.17
10732;BME280;5417;42.686;23.244;2023-04-10T04:49:02;94345.03;;;10.60;65.37
10732;BME280;5417;42.686;23.244;2023-04-10T04:51:23;94349.72;;;10.66;64.76
10732;BME280;5417;42.686;23.244;2023-04-10T04:53:52;94341.44;;;10.93;64.46
10732;BME280;5417;42.686;23.244;2023-04-10T04:56:37;94351.44;;;11.49;62.50
10732;BME280;5417;42.686;23.244;2023-04-10T04:59:04;94349.13;;;11.96;60.45
10732;BME280;5417;42.686;23.244;2023-04-10T05:01:31;94349.84;;;11.98;59.62
10732;BME280;5417;42.686;23.244;2023-04-10T05:04:58;94346.84;;;12.31;59.12
10732;BME280;5417;42.686;23.244;2023-04-10T05:07:16;94353.75;;;12.52;58.20
10732;BME280;5417;42.686;23.244;2023-04-10T05:09:42;94349.47;;;12.70;57.52
10732;BME280;5417;42.686;23.244;2023-04-10T05:12:11;94345.31;;;12.87;56.84
10732;BME280;5417;42.686;23.244;2023-04-10T05:15:01;94359.19;;;12.97;56.46
10732;BME280;5417;42.686;23.244;2023-04-10T05:18:52;94352.19;;;13.07;56.05
10732;BME280;5417;42.686;23.244;2023-04-10T05:20:54;94356.03;;;13.22;55.67
10732;BME280;5417;42.686;23.244;2023-04-10T05:49:03;94361.38;;;13.11;56.71
10732;BME280;5417;42.686;23.244;2023-04-10T05:51:54;94356.69;;;13.15;56.40
10732;BME280;5417;42.686;23.244;2023-04-10T05:55:15;94359.63;;;13.02;56.74
10732;BME280;5417;42.686;23.244;2023-04-10T05:58:26;94365.81;;;12.82;57.63
10732;BME280;5417;42.686;23.244;2023-04-10T06:02:12;94357.94;;;13.11;56.84
10732;BME280;5417;42.686;23.244;2023-04-10T06:04:15;94360.44;;;13.22;55.52
10732;BME280;5417;42.686;23.244;2023-04-10T06:06:42;94369.94;;;12.84;56.91
10732;BME280;5417;42.686;23.244;2023-04-10T06:09:09;94361.56;;;12.61;58.86
10732;BME280;5417;42.686;23.244;2023-04-10T06:17:55;94356.38;;;11.92;60.25
10732;BME280;5417;42.686;23.244;2023-04-10T06:20:23;94357.31;;;11.82;61.46
10732;BME280;5417;42.686;23.244;2023-04-10T06:23:11;94359.66;;;11.85;60.98
10732;BME280;5417;42.686;23.244;2023-04-10T06:25:38;94355.88;;;11.68;61.30
10732;BME280;5417;42.686;23.244;2023-04-10T06:28:06;94357.78;;;11.56;62.28
10732;BME280;5417;42.686;23.244;2023-04-10T06:30:32;94361.22;;;11.57;62.70
10732;BME280;5417;42.686;23.244;2023-04-10T06:33:01;94356.78;;;11.88;62.84
10732;BME280;5417;42.686;23.244;2023-04-10T06:36:11;94346.84;;;12.31;61.42
10732;BME280;5417;42.686;23.244;2023-04-10T06:38:21;94355.91;;;12.37;58.52
10732;BME280;5417;42.686;23.244;2023-04-10T06:40:48;94351.94;;;12.33;58.02
10732;BME280;5417;42.686;23.244;2023-04-10T06:43:15;94361.25;;;12.07;57.64
10732;BME280;5417;42.686;23.244;2023-04-10T06:46:36;94357.25;;;11.62;57.18
10732;BME280;5417;42.686;23.244;2023-04-10T06:48:56;94369.97;;;11.56;57.95
10732;BME280;5417;42.686;23.244;2023-04-10T06:51:24;94372.41;;;11.48;58.78
10732;BME280;5417;42.686;23.244;2023-04-10T06:53:51;94365.34;;;11.38;57.37
10732;BME280;5417;42.686;23.244;2023-04-10T06:56:18;94375.47;;;11.32;57.34
10732;BME280;5417;42.686;23.244;2023-04-10T06:58:45;94376.56;;;11.29;57.57
10732;BME280;5417;42.686;23.244;2023-04-10T07:01:12;94372.09;;;11.11;57.96
10732;BME280;5417;42.686;23.244;2023-04-10T07:03:39;94372.34;;;11.07;59.61
10732;BME280;5417;42.686;23.244;2023-04-10T07:06:06;94381.38;;;11.03;59.97
10732;BME280;5417;42.686;23.244;2023-04-10T07:08:35;94389.31;;;11.02;59.77
10732;BME280;5417;42.686;23.244;2023-04-10T07:11:01;94385.69;;;10.93;59.31
10732;BME280;5417;42.686;23.244;2023-04-10T07:13:28;94380.59;;;10.92;59.27
10732;BME280;5417;42.686;23.244;2023-04-10T07:15:55;94365.91;;;10.91;58.97
10732;BME280;5417;42.686;23.244;2023-04-10T07:18:22;94381.31;;;10.94;58.91
10732;BME280;5417;42.686;23.244;2023-04-10T07:20:50;94370.06;;;10.93;58.34
10732;BME280;5417;42.686;23.244;2023-04-10T07:23:17;94376.59;;;10.88;58.43
10732;BME280;5417;42.686;23.244;2023-04-10T07:25:46;94370.78;;;10.95;58.68
10732;BME280;5417;42.686;23.244;2023-04-10T07:31:03;94373.03;;;10.89;58.31
10732;BME280;5417;42.686;23.244;2023-04-10T07:33:30;94379.25;;;10.77;58.68
10732;BME280;5417;42.686;23.244;2023-04-10T07:35:57;94377.59;;;10.75;58.24
10732;BME280;5417;42.686;23.244;2023-04-10T07:38:24;94374.44;;;10.72;58.54
10732;BME280;5417;42.686;23.244;2023-04-10T07:40:56;94389.78;;;10.75;58.35
10732;BME280;5417;42.686;23.244;2023-04-10T07:43:23;94383.50;;;10.78;58.15
10732;BME280;5417;42.686;23.244;2023-04-10T07:45:50;94374.25;;;10.85;57.95
10732;BME280;5417;42.686;23.244;2023-04-10T07:48:17;94377.97;;;10.92;58.69
10732;BME280;5417;42.686;23.244;2023-04-10T07:50:44;94372.34;;;11.07;57.83
10732;BME280;5417;42.686;23.244;2023-04-10T07:53:11;94369.63;;;11.09;57.11
10732;BME280;5417;42.686;23.244;2023-04-10T07:55:38;94385.41;;;11.17;56.36
10732;BME280;5417;42.686;23.244;2023-04-10T07:58:07;94385.44;;;10.96;56.77
10732;BME280;5417;42.686;23.244;2023-04-10T08:00:34;94372.72;;;11.03;56.82
10732;BME280;5417;42.686;23.244;2023-04-10T08:03:01;94358.75;;;11.04;56.72
10732;BME280;5417;42.686;23.244;2023-04-10T08:05:28;94371.63;;;11.26;57.13
10732;BME280;5417;42.686;23.244;2023-04-10T08:07:55;94365.44;;;11.48;58.45
10732;BME280;5417;42.686;23.244;2023-04-10T08:10:22;94369.88;;;11.67;56.58
10732;BME280;5417;42.686;23.244;2023-04-10T08:12:48;94369.06;;;11.66;56.04
10732;BME280;5417;42.686;23.244;2023-04-10T08:15:17;94371.38;;;11.60;55.68
10732;BME280;5417;42.686;23.244;2023-04-10T08:17:44;94374.75;;;11.51;55.54
10732;BME280;5417;42.686;23.244;2023-04-10T08:20:12;94371.25;;;11.41;55.63
10732;BME280;5417;42.686;23.244;2023-04-10T08:22:39;94367.53;;;11.33;55.92
10732;BME280;5417;42.686;23.244;2023-04-10T08:25:06;94365.63;;;11.35;56.13
10732;BME280;5417;42.686;23.244;2023-04-10T08:27:33;94366.84;;;11.31;56.34
10732;BME280;5417;42.686;23.244;2023-04-10T08:29:59;94370.69;;;11.37;56.99
10732;BME280;5417;42.686;23.244;2023-04-10T08:32:28;94361.22;;;11.36;55.78
10732;BME280;5417;42.686;23.244;2023-04-10T08:34:55;94369.88;;;11.36;55.59
10732;BME280;5417;42.686;23.244;2023-04-10T08:37:22;94373.31;;;11.37;55.17
10732;BME280;5417;42.686;23.244;2023-04-10T08:39:48;94369.19;;;11.34;55.07
10732;BME280;5417;42.686;23.244;2023-04-10T08:42:16;94371.97;;;11.43;55.21
10732;BME280;5417;42.686;23.244;2023-04-10T08:44:43;94370.19;;;11.43;54.58
10732;BME280;5417;42.686;23.244;2023-04-10T08:47:11;94368.41;;;11.44;54.99
10732;BME280;5417;42.686;23.244;2023-04-10T08:49:47;94357.88;;;11.45;55.41
10732;BME280;5417;42.686;23.244;2023-04-10T08:52:15;94353.25;;;11.58;54.50
10732;BME280;5417;42.686;23.244;2023-04-10T08:54:47;94375.19;;;11.56;54.92
10732;BME280;5417;42.686;23.244;2023-04-10T08:57:32;94355.38;;;11.44;55.08
10732;BME280;5417;42.686;23.244;2023-04-10T08:59:59;94361.94;;;11.38;55.35
10732;BME280;5417;42.686;23.244;2023-04-10T09:02:26;94351.78;;;11.35;55.08
10732;BME280;5417;42.686;23.244;2023-04-10T09:04:57;94358.06;;;11.32;54.66
10732;BME280;5417;42.686;23.244;2023-04-10T09:07:26;94362.72;;;11.29;55.11
10732;BME280;5417;42.686;23.244;2023-04-10T09:09:52;94356.19;;;11.44;55.20
10732;BME280;5417;42.686;23.244;2023-04-10T09:12:19;94364.25;;;11.62;54.56
10732;BME280;5417;42.686;23.244;2023-04-10T09:14:46;94354.53;;;11.74;54.57
10732;BME280;5417;42.686;23.244;2023-04-10T09:17:18;94353.91;;;11.81;53.41
10732;BME280;5417;42.686;23.244;2023-04-10T09:20:19;94352.09;;;11.82;52.72
10732;BME280;5417;42.686;23.244;2023-04-10T09:23:10;94338.59;;;11.97;53.68
10732;BME280;5417;42.686;23.244;2023-04-10T09:25:44;94348.75;;;12.20;52.39
10732;BME280;5417;42.686;23.244;2023-04-10T09:28:11;94344.38;;;12.11;52.14
10732;BME280;5417;42.686;23.244;2023-04-10T09:34:32;94324.81;;;11.86;52.94
10732;BME280;5417;42.686;23.244;2023-04-10T09:37:00;94331.25;;;11.91;52.84
10732;BME280;5417;42.686;23.244;2023-04-10T09:39:34;94337.44;;;11.90;53.41
10732;BME280;5417;42.686;23.244;2023-04-10T09:42:01;94330.84;;;11.86;52.07
10732;BME280;5417;42.686;23.244;2023-04-10T09:44:29;94328.16;;;11.67;51.97
10732;BME280;5417;42.686;23.244;2023-04-10T09:46:57;94332.81;;;11.63;52.01
10732;BME280;5417;42.686;23.244;2023-04-10T09:49:24;94340.34;;;11.57;52.17
10732;BME280;5417;42.686;23.244;2023-04-10T09:51:51;94340.88;;;11.51;52.10
10732;BME280;5417;42.686;23.244;2023-04-10T09:54:18;94335.97;;;11.57;52.26
10732;BME280;5417;42.686;23.244;2023-04-10T09:56:46;94330.47;;;11.60;52.88
10732;BME280;5417;42.686;23.244;2023-04-10T09:59:14;94335.69;;;11.60;51.62
10732;BME280;5417;42.686;23.244;2023-04-10T10:01:42;94335.69;;;11.60;51.59
10732;BME280;5417;42.686;23.244;2023-04-10T10:04:10;94324.44;;;11.60;51.19
10732;BME280;5417;42.686;23.244;2023-04-10T10:06:40;94339.78;;;11.53;51.22
10732;BME280;5417;42.686;23.244;2023-04-10T10:09:07;94323.50;;;11.70;50.88
10732;BME280;5417;42.686;23.244;2023-04-10T10:11:34;94329.63;;;11.90;50.37
10732;BME280;5417;42.686;23.244;2023-04-10T10:14:12;94332.78;;;11.94;49.93
10732;BME280;5417;42.686;23.244;2023-04-10T10:16:42;94335.31;;;12.15;49.12
10732;BME280;5417;42.686;23.244;2023-04-10T10:19:18;94320.88;;;12.40;48.70
10732;BME280;5417;42.686;23.244;2023-04-10T10:21:50;94311.00;;;12.43;48.10
10732;BME280;5417;42.686;23.244;2023-04-10T10:24:18;94314.28;;;12.45;48.23
10732;BME280;5417;42.686;23.244;2023-04-10T10:26:46;94301.38;;;12.63;48.32
10732;BME280;5417;42.686;23.244;2023-04-10T10:29:15;94304.38;;;12.78;48.55
10732;BME280;5417;42.686;23.244;2023-04-10T10:31:43;94300.09;;;12.86;48.06
10732;BME280;5417;42.686;23.244;2023-04-10T10:34:11;94296.22;;;12.90;47.90
10732;BME280;5417;42.686;23.244;2023-04-10T10:36:39;94302.00;;;12.94;47.43
10732;BME280;5417;42.686;23.244;2023-04-10T10:40:09;94299.16;;;12.78;47.23
10732;BME280;5417;42.686;23.244;2023-04-10T10:42:46;94287.63;;;12.61;47.25
10732;BME280;5417;42.686;23.244;2023-04-10T10:48:27;94292.84;;;12.42;47.90
10732;BME280;5417;42.686;23.244;2023-04-10T10:50:55;94286.00;;;12.41;48.65
10732;BME280;5417;42.686;23.244;2023-04-10T10:53:41;94273.91;;;12.49;49.80
10732;BME280;5417;42.686;23.244;2023-04-10T10:56:33;94276.94;;;12.54;50.61
10732;BME280;5417;42.686;23.244;2023-04-10T10:59:01;94267.03;;;12.48;50.64
10732;BME280;5417;42.686;23.244;2023-04-10T11:01:28;94281.88;;;12.38;50.79
10732;BME280;5417;42.686;23.244;2023-04-10T11:03:56;94269.25;;;12.33;49.69
10732;BME280;5417;42.686;23.244;2023-04-10T11:06:49;94265.69;;;12.25;49.39
10732;BME280;5417;42.686;23.244;2023-04-10T11:17:09;94255.38;;;12.52;47.49
10732;BME280;5417;42.686;23.244;2023-04-10T11:23:08;94245.34;;;13.04;45.92
10732;BME280;5417;42.686;23.244;2023-04-10T11:25:58;94247.66;;;13.17;45.64
10732;BME280;5417;42.686;23.244;2023-04-10T11:28:35;94249.69;;;13.23;46.21
10732;BME280;5417;42.686;23.244;2023-04-10T11:31:18;94244.41;;;13.33;47.75
10732;BME280;5417;42.686;23.244;2023-04-10T11:33:46;94227.13;;;13.22;47.87
10732;BME280;5417;42.686;23.244;2023-04-10T11:36:14;94230.72;;;13.11;48.83
10732;BME280;5417;42.686;23.244;2023-04-10T11:38:54;94236.53;;;12.95;46.66
10732;BME280;5417;42.686;23.244;2023-04-10T11:41:25;94243.72;;;12.84;46.65
10732;BME280;5417;42.686;23.244;2023-04-10T11:43:53;94231.09;;;12.79;46.67
10732;BME280;5417;42.686;23.244;2023-04-10T11:46:20;94240.97;;;12.85;45.72
10732;BME280;5417;42.686;23.244;2023-04-10T11:48:47;94244.34;;;12.68;46.04
10732;BME280;5417;42.686;23.244;2023-04-10T11:51:17;94253.00;;;12.59;46.17
10732;BME280;5417;42.686;23.244;2023-04-10T11:53:44;94242.44;;;12.60;47.89
10732;BME280;5417;42.686;23.244;2023-04-10T11:59:53;94237.75;;;12.64;49.97
10732;BME280;5417;42.686;23.244;2023-04-10T12:02:20;94236.72;;;12.84;54.11
10732;BME280;5417;42.686;23.244;2023-04-10T12:04:56;94224.56;;;13.03;50.45
10732;BME280;5417;42.686;23.244;2023-04-10T12:07:23;94221.97;;;12.93;50.44
10732;BME280;5417;42.686;23.244;2023-04-10T12:09:55;94218.00;;;12.89;50.12
10732;BME280;5417;42.686;23.244;2023-04-10T12:12:33;94214.19;;;12.83;51.31
10732;BME280;5417;42.686;23.244;2023-04-10T12:15:02;94213.06;;;12.86;51.40
10732;BME280;5417;42.686;23.244;2023-04-10T12:17:29;94212.28;;;12.76;51.54
10732;BME280;5417;42.686;23.244;2023-04-10T12:19:56;94213.53;;;12.72;51.23
10732;BME280;5417;42.686;23.244;2023-04-10T12:22:24;94225.22;;;12.68;51.45
10732;BME280;5417;42.686;23.244;2023-04-10T12:24:52;94223.63;;;12.57;52.19
10732;BME280;5417;42.686;23.244;2023-04-10T12:30:12;94252.63;;;12.15;54.85
10732;BME280;5417;42.686;23.244;2023-04-10T12:32:39;94263.59;;;11.90;59.04
10732;BME280;5417;42.686;23.244;2023-04-10T12:35:11;94254.22;;;11.68;59.57
10732;BME280;5417;42.686;23.244;2023-04-10T12:38:42;94254.22;;;11.18;60.67
10732;BME280;5417;42.686;23.244;2023-04-10T12:41:02;94267.72;;;11.02;61.91
10732;BME280;5417;42.686;23.244;2023-04-10T12:43:31;94269.56;;;10.91;62.38
10732;BME280;5417;42.686;23.244;2023-04-10T12:46:00;94257.72;;;10.77;64.42
10732;BME280;5417;42.686;23.244;2023-04-10T12:48:27;94273.03;;;10.70;65.78
10732;BME280;5417;42.686;23.244;2023-04-10T12:50:55;94264.94;;;10.43;64.87
10732;BME280;5417;42.686;23.244;2023-04-10T12:53:22;94290.78;;;10.24;65.68
10732;BME280;5417;42.686;23.244;2023-04-10T12:56:00;94292.44;;;9.93;63.67
10732;BME280;5417;42.686;23.244;2023-04-10T12:59:02;94279.69;;;9.78;62.65
10732;BME280;5417;42.686;23.244;2023-04-10T13:01:41;94262.50;;;9.98;66.09
10732;BME280;5417;42.686;23.244;2023-04-10T13:04:07;94249.88;;;9.94;66.45
10732;BME280;5417;42.686;23.244;2023-04-10T13:10:19;94242.16;;;10.03;66.44
10732;BME280;5417;42.686;23.244;2023-04-10T13:13:12;94237.22;;;10.00;68.47
10732;BME280;5417;42.686;23.244;2023-04-10T13:15:39;94223.06;;;10.14;69.74
10732;BME280;5417;42.686;23.244;2023-04-10T13:18:08;94228.31;;;10.35;69.75
10732;BME280;5417;42.686;23.244;2023-04-10T13:20:36;94233.63;;;10.54;67.99
10732;BME280;5417;42.686;23.244;2023-04-10T13:23:03;94222.63;;;10.71;68.97
10732;BME280;5417;42.686;23.244;2023-04-10T13:25:31;94214.19;;;10.89;67.57
10732;BME280;5417;42.686;23.244;2023-04-10T13:27:59;94214.13;;;11.00;66.95
10732;BME280;5417;42.686;23.244;2023-04-10T13:30:47;94212.97;;;11.23;66.19
10732;BME280;5417;42.686;23.244;2023-04-10T13:33:29;94207.34;;;11.28;64.41
10732;BME280;5417;42.686;23.244;2023-04-10T13:35:56;94208.84;;;11.21;61.80
10732;BME280;5417;42.686;23.244;2023-04-10T13:38:22;94205.56;;;11.28;61.27
10732;BME280;5417;42.686;23.244;2023-04-10T13:40:49;94202.41;;;11.34;60.20
10732;BME280;5417;42.686;23.244;2023-04-10T13:43:16;94205.19;;;11.43;61.46
10732;BME280;5417;42.686;23.244;2023-04-10T13:45:43;94202.84;;;11.39;60.02
10732;BME280;5417;42.686;23.244;2023-04-10T13:48:10;94197.63;;;11.39;60.04
10732;BME280;5417;42.686;23.244;2023-04-10T13:50:38;94199.03;;;11.53;61.21
10732;BME280;5417;42.686;23.244;2023-04-10T13:53:05;94192.31;;;11.70;59.96
10732;BME280;5417;42.686;23.244;2023-04-10T13:55:34;94199.59;;;11.76;58.77
10732;BME280;5417;42.686;23.244;2023-04-10T13:58:02;94186.31;;;11.89;56.87
10732;BME280;5417;42.686;23.244;2023-04-10T14:00:29;94179.31;;;11.89;57.20
10732;BME280;5417;42.686;23.244;2023-04-10T14:02:56;94179.03;;;11.83;57.86
10732;BME280;5417;42.686;23.244;2023-04-10T14:05:22;94181.09;;;11.89;56.88
10732;BME280;5417;42.686;23.244;2023-04-10T14:07:51;94179.59;;;12.06;57.62
10732;BME280;5417;42.686;23.244;2023-04-10T14:10:21;94172.75;;;12.05;56.50
10732;BME280;5417;42.686;23.244;2023-04-10T14:12:48;94171.06;;;12.13;55.94
10732;BME280;5417;42.686;23.244;2023-04-10T14:15:15;94174.22;;;12.26;55.38
10732;BME280;5417;42.686;23.244;2023-04-10T14:17:53;94163.53;;;12.10;54.42
10732;BME280;5417;42.686;23.244;2023-04-10T14:20:20;94165.72;;;12.15;55.30
10732;BME280;5417;42.686;23.244;2023-04-10T14:22:47;94151.56;;;12.17;55.06
10732;BME280;5417;42.686;23.244;2023-04-10T14:25:15;94159.88;;;12.40;55.62
10732;BME280;5417;42.686;23.244;2023-04-10T14:27:42;94161.09;;;12.46;55.51
10732;BME280;5417;42.686;23.244;2023-04-10T14:30:10;94174.59;;;12.31;56.23
10732;BME280;5417;42.686;23.244;2023-04-10T14:32:52;94177.09;;;12.23;55.02
10732;BME280;5417;42.686;23.244;2023-04-10T14:35:19;94165.72;;;12.15;56.04
10732;BME280;5417;42.686;23.244;2023-04-10T14:37:46;94167.94;;;12.10;56.65
10732;BME280;5417;42.686;23.244;2023-04-10T14:40:14;94168.31;;;12.15;56.82
10732;BME280;5417;42.686;23.244;2023-04-10T14:42:41;94171.47;;;12.18;56.75
10732;BME280;5417;42.686;23.244;2023-04-10T14:45:09;94176.84;;;12.17;56.76
10732;BME280;5417;42.686;23.244;2023-04-10T14:47:36;94177.69;;;11.98;56.30
10732;BME280;5417;42.686;23.244;2023-04-10T14:50:03;94181.13;;;11.98;55.97
10732;BME280;5417;42.686;23.244;2023-04-10T14:53:19;94184.94;;;11.85;55.58
10732;BME280;5417;42.686;23.244;2023-04-10T14:55:50;94192.88;;;11.74;56.22
10732;BME280;5417;42.686;23.244;2023-04-10T14:58:17;94189.16;;;11.66;55.88
10732;BME280;5417;42.686;23.244;2023-04-10T15:00:44;94186.84;;;11.73;56.06
10732;BME280;5417;42.686;23.244;2023-04-10T15:04:04;94188.63;;;11.73;56.92
10732;BME280;5417;42.686;23.244;2023-04-10T15:06:24;94188.22;;;11.58;57.57
10732;BME280;5417;42.686;23.244;2023-04-10T15:08:53;94186.28;;;11.50;58.01
10732;BME280;5417;42.686;23.244;2023-04-10T15:11:21;94184.38;;;11.52;58.71
10732;BME280;5417;42.686;23.244;2023-04-10T15:13:48;94179.44;;;11.59;59.05
10732;BME280;5417;42.686;23.244;2023-04-10T15:16:15;94183.97;;;11.66;58.39
10732;BME280;5417;42.686;23.244;2023-04-10T15:18:42;94182.84;;;11.69;58.45
10732;BME280;5417;42.686;23.244;2023-04-10T15:21:12;94178.06;;;11.64;58.37
10732;BME280;5417;42.686;23.244;2023-04-10T15:23:38;94172.97;;;11.63;59.24
10732;BME280;5417;42.686;23.244;2023-04-10T15:26:09;94173.66;;;11.65;59.17
10732;BME280;5417;42.686;23.244;2023-04-10T15:28:38;94172.44;;;11.69;58.98
10732;BME280;5417;42.686;23.244;2023-04-10T15:31:05;94153.91;;;11.72;58.35
10732;BME280;5417;42.686;23.244;2023-04-10T15:33:32;94167.34;;;11.77;58.02
10732;BME280;5417;42.686;23.244;2023-04-10T15:36:00;94163.09;;;11.76;58.37
10732;BME280;5417;42.686;23.244;2023-04-10T15:38:27;94158.19;;;11.83;57.96
10732;BME280;5417;42.686;23.244;2023-04-10T15:40:54;94156.00;;;11.78;58.29
10732;BME280;5417;42.686;23.244;2023-04-10T16:14:55;94149.94;;;11.87;59.23
10732;BME280;5417;42.686;23.244;2023-04-10T16:17:22;94147.06;;;11.81;60.10
10732;BME280;5417;42.686;23.244;2023-04-10T16:19:49;94144.75;;;11.78;59.40
10732;BME280;5417;42.686;23.244;2023-04-10T16:22:41;94147.88;;;11.72;58.50
10732;BME280;5417;42.686;23.244;2023-04-10T16:31:50;94146.25;;;11.80;58.95
10732;BME280;5417;42.686;23.244;2023-04-10T16:35:43;94154.47;;;11.95;58.47
10732;BME280;5417;42.686;23.244;2023-04-10T16:50:34;94175.84;;;11.50;60.43
10732;BME280;5417;42.686;23.244;2023-04-10T16:53:35;94187.44;;;11.17;59.31
10732;BME280;5417;42.686;23.244;2023-04-10T16:56:02;94183.91;;;10.88;61.08
10732;BME280;5417;42.686;23.244;2023-04-10T17:05:47;94188.25;;;10.05;66.56
10732;BME280;5417;42.686;23.244;2023-04-10T17:24:31;94194.94;;;9.87;68.67
10732;BME280;5417;42.686;23.244;2023-04-10T17:42:35;94221.31;;;10.15;69.70
10732;BME280;5417;42.686;23.244;2023-04-10T17:45:02;94229.25;;;10.34;69.75
10732;BME280;5417;42.686;23.244;2023-04-10T17:47:52;94220.88;;;10.51;69.93
10732;BME280;5417;42.686;23.244;2023-04-10T17:51:13;94214.72;;;10.52;70.13
10732;BME280;5417;42.686;23.244;2023-04-10T18:00:29;94226.44;;;10.05;72.68
10732;BME280;5417;42.686;23.244;2023-04-10T18:21:52;94246.78;;;9.68;77.76